Latest Weather Observations for Port Kembla Harbour

IDN60801

Issued at 5:32 pm EDT Saturday 6 February 2016 (issued every 30 minutes, with the page automatically refreshed every 10 minutes)

About weather observations | Map of weather stations | Latest weather observations for NSW | Other Formats
Station Details ID: 068253 Name: PORT KEMBLA NTC AWS Lat: -34.47 Lon: 150.91 Height: 0.0 m
Data from the previous 72 hours. | See also: Recent months for locations in New South Wales
Date/Time
EDT
Temp
°C
App
Temp
°C
Dew
Point
Rel
Hum
%
Delta-T
°C
Wind Press
QNH
hPa
Press
MSL
hPa
Rain
since 9 am
mm
Dir
 
Spd
km/h
Gust
km/h
Spd
kts
Gust
kts
06/05:00pm 23.3 - - - - SE 17 28 9 15 1016.4 1016.4 -
06/04:30pm 23.2 - - - - SE 17 28 9 15 1016.6 1016.6 -
06/04:00pm 23.5 - - - - SE 15 26 8 14 1016.7 1016.7 -
06/03:30pm 23.5 - - - - SE 17 28 9 15 1016.9 1016.9 -
06/03:00pm 23.3 - - - - SE 17 26 9 14 1017.2 1017.2 -
06/02:30pm 24.1 - - - - SSE 13 24 7 13 1017.4 1017.4 -
06/02:00pm 24.3 - - - - SSE 13 22 7 12 1017.6 1017.6 -
06/01:30pm 23.9 - - - - SSE 15 28 8 15 1017.8 1017.8 -
06/01:00pm 23.8 - - - - SSE 15 24 8 13 1017.9 1017.9 -
06/12:30pm 23.6 - - - - SSE 15 26 8 14 1018.1 1018.1 -
06/12:00pm 22.9 - - - - SSE 15 26 8 14 1018.3 1018.3 -
06/11:30am 22.7 - - - - SSE 13 26 7 14 1018.4 1018.4 -
06/11:00am 22.9 - - - - SSE 15 28 8 15 1018.5 1018.5 -
06/10:30am 22.7 - - - - SSE 13 26 7 14 1018.4 1018.4 -
06/10:00am 22.4 - - - - S 13 24 7 13 1018.4 1018.4 -
06/09:30am 22.5 - - - - SSE 13 24 7 13 1018.3 1018.3 -
06/09:00am 22.5 - - - - SSE 13 24 7 13 1018.2 1018.2 -
06/08:30am 22.3 - - - - S 9 20 5 11 1018.3 1018.3 -
06/08:00am 22.3 - - - - S 11 24 6 13 1017.9 1017.9 -
06/07:30am 21.7 - - - - S 11 22 6 12 1017.7 1017.7 -
06/07:00am 21.4 - - - - SSE 13 24 7 13 1017.4 1017.4 -
06/06:30am 21.4 - - - - SSE 15 26 8 14 1017.1 1017.1 -
06/06:00am 21.6 - - - - S 15 30 8 16 1016.9 1016.9 -
06/05:30am 21.8 - - - - S 9 20 5 11 1016.9 1016.9 -
06/05:00am 21.6 - - - - S 9 19 5 10 1017.0 1017.0 -
06/04:30am 21.5 - - - - S 13 26 7 14 1017.0 1017.0 -
06/04:00am 21.4 - - - - S 9 19 5 10 1017.0 1017.0 -
06/03:30am 20.5 - - - - S 7 19 4 10 1017.3 1017.3 -
06/03:00am 21.6 - - - - SSE 17 28 9 15 1017.4 1017.4 -
06/02:30am 22.0 - - - - SSE 13 24 7 13 1017.6 1017.6 -
06/02:00am 21.8 - - - - S 13 26 7 14 1017.8 1017.8 -
06/01:30am 21.9 - - - - S 9 20 5 11 1017.9 1017.9 -
06/01:00am 21.9 - - - - S 11 22 6 12 1018.2 1018.2 -
06/12:30am 21.7 - - - - S 11 24 6 13 1018.5 1018.5 -
06/12:00am 21.9 - - - - S 15 30 8 16 1018.7 1018.7 -
 
Date/Time
EDT
Temp
°C
App
Temp
°C
Dew
Point
Rel
Hum
%
Delta-T
°C
Wind Press
QNH
hPa
Press
MSL
hPa
Rain
since 9 am
mm
Dir
 
Spd
km/h
Gust
km/h
Spd
kts
Gust
kts
05/11:30pm 22.0 - - - - SSE 15 32 8 17 1018.9 1018.9 -
05/11:00pm 21.9 - - - - SSE 15 26 8 14 1018.9 1018.9 -
05/10:30pm 21.9 - - - - S 17 32 9 17 1019.0 1019.0 -
05/10:00pm 21.8 - - - - SSE 13 24 7 13 1019.0 1019.0 -
05/09:30pm 22.1 - - - - SSE 13 24 7 13 1018.9 1018.9 -
05/09:00pm 22.1 - - - - SSE 15 26 8 14 1018.8 1018.8 -
05/08:30pm 22.1 - - - - SE 19 32 10 17 1018.5 1018.5 -
05/08:00pm 22.1 - - - - SSE 17 28 9 15 1018.2 1018.2 -
05/07:30pm 22.1 - - - - SSE 15 30 8 16 1018.1 1018.1 -
05/07:00pm 22.4 - - - - S 13 26 7 14 1017.9 1017.9 -
05/06:30pm 22.2 - - - - SSE 17 33 9 18 1017.7 1017.7 -
05/06:00pm 22.7 - - - - SSE 17 32 9 17 1017.6 1017.6 -
05/05:30pm 22.6 - - - - SSE 17 30 9 16 1017.7 1017.7 -
05/05:00pm 23.2 - - - - SSE 17 32 9 17 1017.7 1017.7 -
05/04:30pm 23.2 - - - - SSE 20 33 11 18 1017.8 1017.8 -
05/04:00pm 23.2 - - - - SSE 17 28 9 15 1018.0 1018.0 -
05/03:30pm 24.0 - - - - S 13 30 7 16 1018.1 1018.1 -
05/03:00pm 23.5 - - - - SSE 19 33 10 18 1018.2 1018.2 -
05/02:30pm 22.9 - - - - SSE 17 32 9 17 1018.4 1018.4 -
05/02:00pm 23.4 - - - - SSE 15 28 8 15 1018.4 1018.4 -
05/01:30pm 23.3 - - - - SSE 17 33 9 18 1018.4 1018.4 -
05/01:00pm 23.2 - - - - SSE 19 35 10 19 1018.5 1018.5 -
05/12:30pm 23.5 - - - - SSE 19 41 10 22 1018.6 1018.6 -
05/12:00pm 23.0 - - - - SSE 19 32 10 17 1018.7 1018.7 -
05/11:30am 22.8 - - - - SSE 19 35 10 19 1018.8 1018.8 -
05/11:00am 22.5 - - - - SSE 19 37 10 20 1018.9 1018.9 -
05/10:30am 22.4 - - - - S 13 28 7 15 1018.6 1018.6 -
05/10:00am 22.3 - - - - SSE 19 33 10 18 1018.3 1018.3 -
05/09:30am 22.1 - - - - SSE 19 35 10 19 1018.2 1018.2 -
05/09:00am 22.3 - - - - SSE 20 43 11 23 1018.0 1018.0 -
05/08:30am 21.7 - - - - S 17 32 9 17 1017.7 1017.7 -
05/08:00am 21.7 - - - - S 19 39 10 21 1017.2 1017.2 -
05/07:30am 21.7 - - - - S 15 30 8 16 1016.8 1016.8 -
05/07:00am 21.6 - - - - S 17 37 9 20 1016.4 1016.4 -
05/06:30am 21.6 - - - - SSE 19 33 10 18 1016.1 1016.1 -
05/06:00am 21.1 - - - - SSE 17 33 9 18 1015.9 1015.9 -
05/05:30am 21.2 - - - - SSE 17 33 9 18 1015.7 1015.7 -
05/05:00am 21.3 - - - - SE 24 37 13 20 1015.4 1015.4 -
05/04:30am 21.1 - - - - SSE 20 39 11 21 1015.2 1015.2 -
05/04:00am 19.8 - - - - SW 15 22 8 12 1015.1 1015.1 -
05/03:30am 21.4 - - - - SSE 20 37 11 20 1015.1 1015.1 -
05/03:00am 21.3 - - - - SSW 15 37 8 20 1015.2 1015.2 -
05/02:30am 20.7 - - - - SW 17 28 9 15 1015.5 1015.5 -
05/02:00am 21.7 - - - - S 17 35 9 19 1015.5 1015.5 -
05/01:30am 21.8 - - - - S 19 43 10 23 1015.5 1015.5 -
05/01:00am 20.3 - - - - SW 20 35 11 19 1015.8 1015.8 -
05/12:30am 21.2 - - - - SSW 19 37 10 20 1015.9 1015.9 -
05/12:00am 21.9 - - - - SSW 19 35 10 19 1015.9 1015.9 -
 
Date/Time
EDT
Temp
°C
App
Temp
°C
Dew
Point
Rel
Hum
%
Delta-T
°C
Wind Press
QNH
hPa
Press
MSL
hPa
Rain
since 9 am
mm
Dir
 
Spd
km/h
Gust
km/h
Spd
kts
Gust
kts
04/11:30pm 21.5 - - - - SSW 20 35 11 19 1016.1 1016.1 -
04/11:00pm 21.4 - - - - SSW 24 46 13 25 1016.1 1016.1 -
04/10:30pm 21.0 - - - - SSW 20 35 11 19 1016.2 1016.2 -
04/10:00pm 21.1 - - - - SSW 17 32 9 17 1016.2 1016.2 -
04/09:30pm 21.3 - - - - SSW 20 46 11 25 1016.1 1016.1 -
04/09:00pm 21.7 - - - - SSW 19 35 10 19 1015.8 1015.8 -
04/08:30pm 21.8 - - - - SSW 20 35 11 19 1015.6 1015.6 -
04/08:00pm 21.7 - - - - SSW 22 44 12 24 1015.4 1015.4 -
04/07:30pm 21.9 - - - - SSW 20 41 11 22 1015.0 1015.0 -
04/07:00pm 22.4 - - - - SSW 22 44 12 24 1014.6 1014.6 -
04/06:30pm 22.3 - - - - S 22 48 12 26 1014.3 1014.3 -
04/06:00pm 22.4 - - - - S 19 43 10 23 1014.0 1014.0 -
04/05:30pm 22.9 - - - - SSW 22 48 12 26 1013.9 1013.9 -
04/05:00pm 23.2 - - - - SSW 24 43 13 23 1013.7 1013.7 -
04/04:30pm 23.4 - - - - S 24 46 13 25 1013.5 1013.5 -
04/04:23pm 23.2 - - - - S 28 52 15 28 1013.4 1013.4 -
04/04:00pm 23.4 - - - - S 20 43 11 23 1013.4 1013.4 -
04/03:30pm 23.6 - - - - S 20 37 11 20 1013.4 1013.4 -
04/03:00pm 23.5 - - - - SSW 22 41 12 22 1013.4 1013.4 -
04/02:30pm 23.4 - - - - SSW 22 46 12 25 1013.4 1013.4 -
04/02:00pm 23.3 - - - - SSW 22 44 12 24 1013.5 1013.5 -
04/01:30pm 23.6 - - - - S 20 43 11 23 1013.4 1013.4 -
04/01:00pm 23.4 - - - - S 22 43 12 23 1013.5 1013.5 -
04/12:30pm 23.5 - - - - SSW 20 46 11 25 1013.5 1013.5 -
04/12:00pm 23.2 - - - - SSW 24 44 13 24 1013.5 1013.5 -
04/11:30am 22.3 - - - - SSW 20 37 11 20 1013.4 1013.4 -
04/11:00am 21.6 - - - - SSW 22 37 12 20 1013.2 1013.2 -
04/10:30am 20.9 - - - - SW 28 46 15 25 1012.9 1012.9 -
04/10:00am 19.8 - - - - SW 26 44 14 24 1012.8 1012.8 -
04/09:31am 19.9 - - - - SW 28 48 15 26 1012.6 1012.6 -
04/09:30am 19.9 - - - - SW 26 48 14 26 1012.6 1012.6 -
04/09:00am 20.0 - - - - SW 30 46 16 25 1012.4 1012.4 -
04/08:48am 20.2 - - - - SW 28 48 15 26 1012.3 1012.3 -
04/08:30am 19.9 - - - - SW 24 39 13 21 1012.0 1012.0 -
04/08:00am 19.6 - - - - SW 24 37 13 20 1011.8 1011.8 -
04/07:30am 18.9 - - - - SW 22 33 12 18 1011.5 1011.5 -
04/07:10am 19.1 - - - - SW 28 48 15 26 1011.3 1011.3 -
04/07:00am 19.2 - - - - SW 22 35 12 19 1011.2 1011.2 -
04/06:30am 19.1 - - - - SW 22 33 12 18 1010.8 1010.8 -
04/06:00am 19.1 - - - - SW 22 35 12 19 1010.4 1010.4 -
04/05:30am 19.0 - - - - SW 24 37 13 20 1010.0 1010.0 -
04/05:00am 19.1 - - - - SW 22 32 12 17 1009.6 1009.6 -

Other Formats:

Comma delimited format used in spreadsheet applications
http://www.bom.gov.au/fwo/IDN60801/IDN60801.95745.axf

JavaScript Object Notation format (JSON) in row-major order
http://www.bom.gov.au/fwo/IDN60801/IDN60801.95745.json